createdAt,value
2022-10-18T00:01:22.519Z,18.8
2022-10-18T00:06:25.039Z,19.5
2022-10-18T00:11:24.500Z,19
2022-10-18T00:16:24.551Z,19.2
2022-10-18T00:21:24.585Z,19.2
2022-10-18T00:26:27.361Z,19.1
2022-10-18T00:31:29.479Z,19.1
2022-10-18T00:36:29.029Z,18.9
2022-10-18T00:41:28.542Z,19.3
2022-10-18T00:46:31.243Z,19.1
2022-10-18T00:51:33.181Z,19.4
2022-10-18T00:56:32.457Z,19.2
2022-10-18T01:01:35.272Z,19.4
2022-10-18T01:06:37.412Z,19.4
2022-10-18T01:11:36.583Z,19.1
2022-10-18T01:16:36.284Z,19.2
2022-10-18T01:21:39.350Z,19.3
2022-10-18T01:26:41.382Z,19.3
2022-10-18T01:31:40.602Z,19.1
2022-10-18T01:36:40.420Z,18.8
2022-10-18T01:41:40.263Z,19.2
2022-10-18T01:46:40.144Z,19.2
2022-10-18T01:51:40.005Z,18.6
2022-10-18T01:56:42.336Z,18.6
2022-10-18T02:01:41.939Z,19
2022-10-18T02:06:41.501Z,19.1
2022-10-18T02:11:41.286Z,19
2022-10-18T02:16:43.735Z,18.1
2022-10-18T02:21:43.061Z,18.8
2022-10-18T02:26:43.012Z,18.7
2022-10-18T02:31:42.746Z,19
2022-10-18T02:36:42.418Z,18.4
2022-10-18T02:41:42.350Z,18.6
2022-10-18T02:46:44.947Z,19.2
2022-10-18T02:51:44.432Z,18.9
2022-10-18T02:56:44.298Z,18.9
2022-10-18T03:01:44.077Z,18.9
2022-10-18T03:06:43.928Z,18.6
2022-10-18T03:11:43.708Z,18.9
2022-10-18T03:16:43.557Z,18.5
2022-10-18T03:21:44.339Z,19
2022-10-18T03:26:43.648Z,18.8
2022-10-18T03:31:43.692Z,18.9
2022-10-18T03:36:43.454Z,18.5
2022-10-18T03:41:46.211Z,18.6
2022-10-18T03:46:45.692Z,18.5
2022-10-18T03:51:48.345Z,18.3
2022-10-18T03:56:50.383Z,18.6
2022-10-18T04:01:50.043Z,18.3
2022-10-18T04:06:49.938Z,18.5
2022-10-18T04:11:50.131Z,18.7
2022-10-18T04:16:49.769Z,18.8
2022-10-18T04:21:52.508Z,18.6
2022-10-18T04:26:52.139Z,18.7
2022-10-18T04:31:51.811Z,18.7
2022-10-18T04:36:51.826Z,18.4
2022-10-18T04:41:54.358Z,18.5
2022-10-18T04:46:53.784Z,18.4
2022-10-18T04:51:53.449Z,18.7
2022-10-18T04:56:56.153Z,18.3
2022-10-18T05:01:58.539Z,18.9
2022-10-18T05:06:57.875Z,18.7
2022-10-18T05:11:59.698Z,19
2022-10-18T05:17:02.066Z,19
2022-10-18T05:22:01.550Z,19.3
2022-10-18T05:27:01.091Z,19.5
2022-10-18T05:32:03.612Z,19.1
2022-10-18T05:37:03.139Z,19.6
2022-10-18T05:42:05.723Z,19.9
2022-10-18T05:47:08.058Z,19.6
2022-10-18T05:52:07.345Z,19.8
2022-10-18T05:57:07.283Z,19.6
2022-10-18T06:02:07.143Z,20
2022-10-18T06:07:10.139Z,19.9
2022-10-18T06:12:12.374Z,19.7
2022-10-18T06:17:11.607Z,20.2
2022-10-18T06:22:11.403Z,20.3
2022-10-18T06:27:11.371Z,20.3
2022-10-18T06:32:11.331Z,19.9
2022-10-18T06:37:14.083Z,20.6
2022-10-18T06:42:13.539Z,20.3
2022-10-18T06:47:16.017Z,20.3
2022-10-18T06:52:14.979Z,20.7
2022-10-18T06:57:14.949Z,20.7
2022-10-18T07:02:14.680Z,20.7
2022-10-18T07:07:14.378Z,20.7
2022-10-18T07:12:16.904Z,20.9
2022-10-18T07:17:16.542Z,20.6
2022-10-18T07:22:16.257Z,20.8
2022-10-18T07:27:18.983Z,20.9
2022-10-18T07:32:21.195Z,20.6
2022-10-18T07:37:25.431Z,20.9
2022-10-18T07:42:24.967Z,20.9
2022-10-18T07:47:24.318Z,19.8
2022-10-18T07:52:23.997Z,20.7
2022-10-18T07:57:26.722Z,20.9
2022-10-18T08:02:26.239Z,20.8
2022-10-18T08:07:26.033Z,20.8
2022-10-18T08:12:25.960Z,20.8
2022-10-18T08:17:25.419Z,20.8
2022-10-18T08:22:25.231Z,20.8
2022-10-18T08:27:27.999Z,20.8
2022-10-18T08:32:30.323Z,20.8
2022-10-18T08:37:29.262Z,20.4
2022-10-18T08:42:28.826Z,20.7
2022-10-18T08:47:28.756Z,20.6
2022-10-18T08:52:31.111Z,20.7
2022-10-18T08:57:33.659Z,20.7
2022-10-18T09:02:35.523Z,20.7
2022-10-18T09:07:34.659Z,20.5
2022-10-18T09:12:37.389Z,20.7
2022-10-18T09:17:39.301Z,20.3
2022-10-18T09:22:41.321Z,20.3
2022-10-18T09:27:43.218Z,20.6
2022-10-18T09:32:42.531Z,20.1
2022-10-18T09:37:42.365Z,20.3
2022-10-18T09:42:42.416Z,20
2022-10-18T09:47:45.165Z,20.5
2022-10-18T09:52:47.363Z,20.5
2022-10-18T09:57:49.598Z,20.4
2022-10-18T10:02:49.057Z,20.3
2022-10-18T10:07:48.955Z,19.7
2022-10-18T10:12:49.112Z,20.3
2022-10-18T10:17:51.831Z,20.3
2022-10-18T10:22:51.258Z,19.7
2022-10-18T10:27:51.023Z,20.3
2022-10-18T10:32:50.981Z,19.8
2022-10-18T10:37:53.577Z,20.5
2022-10-18T10:42:59.906Z,20.4
2022-10-18T10:47:57.944Z,20.5
2022-10-18T10:52:59.992Z,20.4
2022-10-18T10:58:02.115Z,20.4
2022-10-18T11:03:06.086Z,20
2022-10-18T11:08:04.081Z,20.4
2022-10-18T11:13:03.484Z,19.7
2022-10-18T11:18:03.358Z,20.1
2022-10-18T11:23:09.638Z,20.4
2022-10-18T11:28:11.209Z,20.4
2022-10-18T11:33:10.629Z,20.3
2022-10-18T11:38:10.549Z,20.2
2022-10-18T11:43:09.445Z,20
2022-10-18T11:48:09.690Z,20.1
2022-10-18T11:53:09.628Z,20.3
2022-10-18T11:58:12.462Z,20.4
2022-10-18T12:03:11.867Z,20.4
2022-10-18T12:08:10.508Z,19.9
2022-10-18T12:13:10.584Z,20.3
2022-10-18T12:18:10.310Z,20.4
2022-10-18T12:23:10.149Z,20.4
2022-10-18T12:28:10.241Z,20.4
2022-10-18T12:33:27.005Z,20.1
2022-10-18T12:38:12.748Z,20.5
2022-10-18T12:43:14.979Z,20.6
2022-10-18T12:48:14.469Z,20.2
2022-10-18T12:53:17.074Z,20.2
2022-10-18T12:58:19.320Z,20.5
2022-10-18T13:03:18.729Z,20.4
2022-10-18T13:08:18.801Z,20.4
2022-10-18T13:13:36.186Z,20.5
2022-10-18T13:18:21.688Z,20.7
2022-10-18T13:23:21.176Z,20.8
2022-10-18T13:28:24.064Z,20.7
2022-10-18T13:33:25.674Z,21
2022-10-18T13:38:27.851Z,20.8
2022-10-18T13:43:27.310Z,20.7
2022-10-18T13:48:27.119Z,20.6
2022-10-18T13:53:27.008Z,21
2022-10-18T13:58:29.546Z,21.1
2022-10-18T14:03:55.396Z,20.9
2022-10-18T14:08:31.687Z,21.1
2022-10-18T14:13:31.009Z,20.5
2022-10-18T14:18:31.716Z,21
2022-10-18T14:23:30.509Z,21
2022-10-18T14:28:42.025Z,21
2022-10-18T14:33:30.362Z,21
2022-10-18T14:38:32.724Z,21.2
2022-10-18T14:43:34.984Z,21
2022-10-18T14:48:34.626Z,20.8
2022-10-18T14:53:36.701Z,21
2022-10-18T14:58:36.467Z,21
2022-10-18T15:03:36.505Z,20.9
2022-10-18T15:08:39.309Z,21.2
2022-10-18T15:13:38.872Z,20.5
2022-10-18T15:18:41.521Z,21.2
2022-10-18T15:23:43.791Z,21.2
2022-10-18T15:28:43.293Z,21
2022-10-18T15:33:42.715Z,21
2022-10-18T15:38:45.098Z,21
2022-10-18T15:43:42.708Z,21
2022-10-18T15:48:42.618Z,20.7
2022-10-18T15:53:45.337Z,20.8
2022-10-18T15:58:47.247Z,21.1
2022-10-18T16:03:46.395Z,21
2022-10-18T16:08:46.086Z,20.9
2022-10-18T16:13:48.722Z,21.1
2022-10-18T16:18:48.162Z,20.9
2022-10-18T16:23:47.980Z,20.6
2022-10-18T16:28:50.667Z,21.1
2022-10-18T16:33:50.034Z,20.9
2022-10-18T16:38:52.621Z,21.1
2022-10-18T16:43:51.997Z,20.9
2022-10-18T16:48:52.038Z,20.8
2022-10-18T16:53:54.431Z,20.9
2022-10-18T16:58:53.905Z,20.6
2022-10-18T17:03:53.636Z,19.7
2022-10-18T17:08:53.160Z,20.6
2022-10-18T17:13:53.870Z,19.6
2022-10-18T17:18:53.757Z,20.4
2022-10-18T17:23:53.629Z,20.5
2022-10-18T17:28:53.537Z,19.9
2022-10-18T17:33:53.454Z,20.3
2022-10-18T17:38:53.384Z,19.3
2022-10-18T17:43:53.132Z,20.4
2022-10-18T17:48:52.843Z,20.4
2022-10-18T17:53:52.918Z,20.3
2022-10-18T17:58:52.758Z,20.3
2022-10-18T18:03:55.305Z,20.5
2022-10-18T18:08:55.763Z,20.4
2022-10-18T18:13:55.469Z,20.3
2022-10-18T18:18:55.281Z,20.2
2022-10-18T18:23:57.983Z,20.3
2022-10-18T18:28:57.758Z,19.9
2022-10-18T18:33:57.893Z,20.2
2022-10-18T18:39:00.598Z,20.3
2022-10-18T18:43:59.964Z,20.1
2022-10-18T18:48:59.651Z,20.1
2022-10-18T18:53:57.937Z,20
2022-10-18T18:58:57.951Z,19.8
2022-10-18T19:03:58.089Z,19.8
2022-10-18T19:09:00.742Z,20.2
2022-10-18T19:14:00.250Z,19.8
2022-10-18T19:18:59.650Z,19.6
2022-10-18T19:23:58.626Z,19.9
2022-10-18T19:28:58.395Z,19.9
2022-10-18T19:33:59.498Z,19.9
2022-10-18T19:39:00.954Z,20
2022-10-18T19:44:00.193Z,19.7
2022-10-18T19:49:00.102Z,19.7
2022-10-18T19:54:02.440Z,20
2022-10-18T19:59:04.509Z,19.7
2022-10-18T20:04:03.804Z,19.5
2022-10-18T20:09:03.748Z,19.8
2022-10-18T20:14:03.742Z,19.7
2022-10-18T20:19:06.420Z,19.9
2022-10-18T20:24:08.848Z,19.6
2022-10-18T20:29:11.109Z,19.9
2022-10-18T20:34:10.656Z,19.7
2022-10-18T20:39:13.264Z,19.3
2022-10-18T20:44:12.679Z,19.4
2022-10-18T20:49:12.460Z,19.4
2022-10-18T20:54:12.387Z,19.3
2022-10-18T20:59:15.075Z,19.6
2022-10-18T21:04:14.454Z,19.5
2022-10-18T21:09:14.209Z,19.6
2022-10-18T21:14:16.658Z,19.5
2022-10-18T21:19:18.646Z,19.8
2022-10-18T21:24:17.874Z,19.4
2022-10-18T21:29:21.798Z,19.3
2022-10-18T21:34:17.971Z,19.6
2022-10-18T21:39:20.989Z,19.4
2022-10-18T21:44:19.273Z,19.7
2022-10-18T21:49:19.460Z,19.3
2022-10-18T21:54:19.295Z,19.5
2022-10-18T21:59:19.338Z,19.5
2022-10-18T22:04:23.677Z,19.6
2022-10-18T22:09:22.917Z,19.5
2022-10-18T22:14:25.517Z,19.3
2022-10-18T22:19:24.981Z,19
2022-10-18T22:24:27.706Z,19.2
2022-10-18T22:29:26.938Z,19.1
2022-10-18T22:34:26.866Z,19.1
2022-10-18T22:39:26.928Z,19.4
2022-10-18T22:44:26.782Z,19.3
2022-10-18T22:49:26.648Z,19.3
2022-10-18T22:54:26.729Z,19.3
2022-10-18T22:59:26.854Z,19.1
2022-10-18T23:04:26.876Z,19.3
2022-10-18T23:09:29.442Z,19.4
2022-10-18T23:14:28.900Z,19.3
2022-10-18T23:19:28.601Z,19.2
2022-10-18T23:24:28.635Z,18.9
2022-10-18T23:29:28.357Z,18.9
2022-10-18T23:34:30.967Z,19.3
2022-10-18T23:39:32.368Z,19.2
2022-10-18T23:44:31.705Z,19.2
2022-10-18T23:49:34.419Z,19
2022-10-18T23:54:33.758Z,18.5
2022-10-18T23:59:33.516Z,19.1
